Portada
METAR-TAF:

METAR-TAF

Aeroports :

Culdrose, Anglaterra

latitud: 50-05N, longitud: 005-15W, altitud: 78 m

Observació

L'informe es va fer fa 18 minuts, a les 09:25 UTC
Vent 10 kt del Sud/Sud-Oest
Temperatura 17°C
Humitat 82%
Pressió 1026 hPa
Visibilitat 10 km o més
Núvols disperses a una alçada de 1500 ft
Núvols disperses a una alçada de 2000 ft
Cel ennuvolat a una alçada de 5000 ft

METAR: EGDR 220925Z 21010KT 9999 SCT015 SCT020 BKN050 17/14 Q1026 TEMPO SCT014 RMK BLU TEMPO GRN

Hora: 10:43 (09:43 UTC)

Pronòstic

L'informe es va fer fa 2 hores i 1 minuts, a les 07:42 UTC
Pronòstic vàlid del 22 a les 09 UTC al 22 a les 18 UTC
Vent 8 kt del Sud-Oest
Visibilitat 10 km o més
Escasses núvols a una alçada de 1400 ft
Núvols disperses a una alçada de 1500 ft
Probabilitat 40% :
Temporalment
l' 22 a les 09 UTC al 22 a les 18 UTC
Núvols disperses a una alçada de 1400 ft

TAF: EGDR 220742Z 2209/2218 22008KT 9999 FEW014 SCT015 PROB40 TEMPO 2209/2218 SCT014

Observacions i pronòstics meteorològics de més de 4000 aeroports (METAR i TAF).

Les estacions disponibles són els punts grocs i vermells al mapa.

Posi el ratolí al punt desitjat per veure el nom de l'estació.

Feu clic per veure les observacions i els pronòstics meteorològics.

Per canviar el mapa: feu clic els botons verds amb una creu de color negre per apropar; al botó verd amb un guió per allunyar la imatge; o en les fletxes verdes per a mapes adjacents.


METAR-TAF: